createdAt,value
2022-09-11T00:00:32.858Z,13.06
2022-09-11T00:03:31.387Z,13.09
2022-09-11T00:06:30.394Z,13.16
2022-09-11T00:09:27.516Z,13.15
2022-09-11T00:12:24.390Z,13.12
2022-09-11T00:15:21.201Z,13.13
2022-09-11T00:18:24.036Z,13.00
2022-09-11T00:21:21.236Z,13.03
2022-09-11T00:24:18.049Z,12.95
2022-09-11T00:27:14.860Z,12.95
2022-09-11T00:30:14.226Z,12.96
2022-09-11T00:33:13.275Z,13.05
2022-09-11T00:36:22.627Z,13.06
2022-09-11T00:39:19.544Z,13.05
2022-09-11T00:42:16.453Z,13.04
2022-09-11T00:45:28.078Z,13.07
2022-09-11T00:48:31.419Z,13.04
2022-09-11T00:51:33.789Z,13.09
2022-09-11T00:54:35.417Z,13.14
2022-09-11T00:57:39.264Z,13.13
2022-09-11T01:00:37.123Z,13.17
2022-09-11T01:03:34.082Z,13.13
2022-09-11T01:06:32.170Z,13.16
2022-09-11T01:09:31.803Z,13.21
2022-09-11T01:13:09.032Z,13.08
2022-09-11T01:16:35.625Z,13.03
2022-09-11T01:20:13.602Z,13.08
2022-09-11T01:23:55.141Z,13.03
2022-09-11T01:27:31.085Z,13.02
2022-09-11T01:30:43.204Z,12.99
2022-09-11T01:33:50.912Z,13.03
2022-09-11T01:37:05.271Z,12.99
2022-09-11T01:40:13.189Z,12.96
2022-09-11T01:43:20.551Z,12.98
2022-09-11T01:46:24.598Z,12.89
2022-09-11T01:49:35.309Z,12.86
2022-09-11T01:52:36.207Z,12.92
2022-09-11T01:56:05.508Z,12.97
2022-09-11T01:59:07.220Z,12.90
2022-09-11T02:02:11.023Z,12.96
2022-09-11T02:05:23.323Z,12.89
2022-09-11T02:08:45.189Z,12.87
2022-09-11T02:11:45.349Z,12.90
2022-09-11T02:14:46.566Z,12.93
2022-09-11T02:18:05.546Z,12.99
2022-09-11T02:21:02.327Z,12.99
2022-09-11T02:24:01.139Z,12.88
2022-09-11T02:27:05.357Z,12.89
2022-09-11T02:30:02.471Z,12.90
2022-09-11T02:32:59.255Z,12.79
2022-09-11T02:36:15.264Z,12.76
2022-09-11T02:39:32.226Z,12.95
2022-09-11T02:43:02.727Z,13.03
2022-09-11T02:46:46.253Z,12.94
2022-09-11T02:50:21.970Z,12.92
2022-09-11T02:54:24.811Z,12.87
2022-09-11T02:57:36.531Z,12.87
2022-09-11T03:00:33.518Z,12.87
2022-09-11T03:03:40.230Z,12.77
2022-09-11T03:06:37.258Z,12.86
2022-09-11T03:09:34.972Z,12.92
2022-09-11T03:12:31.970Z,12.92
2022-09-11T03:15:28.760Z,12.89
2022-09-11T03:18:25.582Z,12.88
2022-09-11T03:21:22.401Z,12.89
2022-09-11T03:24:19.273Z,12.82
2022-09-11T03:27:17.165Z,12.82
2022-09-11T03:30:14.155Z,12.83
2022-09-11T03:33:11.409Z,12.80
2022-09-11T03:36:09.307Z,12.70
2022-09-11T03:39:06.501Z,12.77
2022-09-11T03:42:03.357Z,12.76
2022-09-11T03:45:00.163Z,12.75
2022-09-11T03:47:57.489Z,12.62
2022-09-11T03:50:54.550Z,12.67
2022-09-11T03:53:51.379Z,12.66
2022-09-11T03:56:48.207Z,12.72
2022-09-11T03:59:45.259Z,12.82
2022-09-11T04:02:42.128Z,12.80
2022-09-11T04:05:39.067Z,12.84
2022-09-11T04:08:35.874Z,12.80
2022-09-11T04:11:37.236Z,12.76
2022-09-11T04:14:34.437Z,12.69
2022-09-11T04:17:31.214Z,12.64
2022-09-11T04:20:28.083Z,12.68
2022-09-11T04:23:25.348Z,12.68
2022-09-11T04:26:25.150Z,12.61
2022-09-11T04:29:22.546Z,12.61
2022-09-11T04:32:19.459Z,12.58
2022-09-11T04:35:17.350Z,12.45
2022-09-11T04:38:14.146Z,12.58
2022-09-11T04:41:11.715Z,12.51
2022-09-11T04:44:08.677Z,12.56
2022-09-11T04:47:05.544Z,12.65
2022-09-11T04:50:02.338Z,12.69
2022-09-11T04:52:59.160Z,12.71
2022-09-11T04:56:12.298Z,12.69
2022-09-11T04:59:17.901Z,12.54
2022-09-11T05:02:15.170Z,12.55
2022-09-11T05:05:12.160Z,12.60
2022-09-11T05:08:09.039Z,12.53
2022-09-11T05:11:06.501Z,12.59
2022-09-11T05:14:03.520Z,12.57
2022-09-11T05:17:01.441Z,12.57
2022-09-11T05:19:58.907Z,12.51
2022-09-11T05:22:56.290Z,12.57
2022-09-11T05:26:01.286Z,12.58
2022-09-11T05:29:02.723Z,12.46
2022-09-11T05:31:59.536Z,12.48
2022-09-11T05:34:56.325Z,12.59
2022-09-11T05:37:53.176Z,12.61
2022-09-11T05:40:52.830Z,12.73
2022-09-11T05:43:52.863Z,12.61
2022-09-11T05:46:49.676Z,12.62
2022-09-11T05:49:46.574Z,12.73
2022-09-11T05:52:43.363Z,12.68
2022-09-11T05:55:40.152Z,12.73
2022-09-11T05:58:37.680Z,12.81
2022-09-11T06:01:34.623Z,12.84
2022-09-11T06:04:31.521Z,12.88
2022-09-11T06:07:28.633Z,12.84
2022-09-11T06:10:25.854Z,12.93
2022-09-11T06:13:22.700Z,13.04
2022-09-11T06:16:25.115Z,13.03
2022-09-11T06:19:21.965Z,12.94
2022-09-11T06:22:18.986Z,12.88
2022-09-11T06:25:15.848Z,12.91
2022-09-11T06:28:12.650Z,12.99
2022-09-11T06:31:16.339Z,12.85
2022-09-11T06:34:13.960Z,12.94
2022-09-11T06:37:10.754Z,13.00
2022-09-11T06:40:08.198Z,13.06
2022-09-11T06:43:05.372Z,13.04
2022-09-11T06:46:22.986Z,13.04
2022-09-11T06:49:19.940Z,13.07
2022-09-11T06:52:16.732Z,13.16
2022-09-11T06:55:14.518Z,13.14
2022-09-11T06:58:11.715Z,13.23
2022-09-11T07:01:16.243Z,13.23
2022-09-11T07:04:13.092Z,13.22
2022-09-11T07:07:10.259Z,13.23
2022-09-11T07:10:09.306Z,13.26
2022-09-11T07:13:06.112Z,13.23
2022-09-11T07:16:05.640Z,13.26
2022-09-11T07:19:04.024Z,13.29
2022-09-11T07:22:00.827Z,13.37
2022-09-11T07:25:03.625Z,13.40
2022-09-11T07:28:02.714Z,13.50
2022-09-11T07:31:15.338Z,13.61
2022-09-11T07:34:15.470Z,13.64
2022-09-11T07:37:12.267Z,13.61
2022-09-11T07:40:10.209Z,13.65
2022-09-11T07:43:07.083Z,13.63
2022-09-11T07:46:05.877Z,13.62
2022-09-11T07:49:02.959Z,13.59
2022-09-11T07:51:59.796Z,13.51
2022-09-11T07:54:56.593Z,13.62
2022-09-11T07:57:54.131Z,13.61
2022-09-11T08:00:58.982Z,13.61
2022-09-11T08:04:02.832Z,13.72
2022-09-11T08:06:59.622Z,13.72
2022-09-11T08:10:23.287Z,13.73
2022-09-11T08:13:13.261Z,13.90
2022-09-11T08:16:10.102Z,13.93
2022-09-11T08:19:08.844Z,13.92
2022-09-11T08:22:08.711Z,14.11
2022-09-11T08:25:06.734Z,14.24
2022-09-11T08:28:04.635Z,14.39
2022-09-11T08:31:02.056Z,14.47
2022-09-11T08:33:59.165Z,14.51
2022-09-11T08:36:56.291Z,14.47
2022-09-11T08:39:53.110Z,14.28
2022-09-11T08:42:51.776Z,14.24
2022-09-11T08:45:51.613Z,14.21
2022-09-11T08:49:02.932Z,14.12
2022-09-11T08:52:03.193Z,14.24
2022-09-11T08:55:00.125Z,14.37
2022-09-11T08:58:20.983Z,14.37
2022-09-11T09:01:53.123Z,14.56
2022-09-11T09:05:14.575Z,14.69
2022-09-11T09:08:53.537Z,14.89
2022-09-11T09:11:58.616Z,15.11
2022-09-11T09:15:24.235Z,16.50
2022-09-11T09:18:49.029Z,16.13
2022-09-11T09:22:41.057Z,16.62
2022-09-11T09:25:42.255Z,15.78
2022-09-11T09:28:46.649Z,15.59
2022-09-11T09:31:46.539Z,15.40
2022-09-11T09:34:45.874Z,15.25
2022-09-11T09:37:43.883Z,15.11
2022-09-11T09:40:59.614Z,15.00
2022-09-11T09:45:02.389Z,15.09
2022-09-11T09:48:01.286Z,15.14
2022-09-11T09:50:58.194Z,15.00
2022-09-11T09:54:02.713Z,16.20
2022-09-11T09:57:11.643Z,17.37
2022-09-11T10:00:11.883Z,17.40
2022-09-11T10:03:25.502Z,16.75
2022-09-11T10:06:23.550Z,16.52
2022-09-11T10:09:47.274Z,16.92
2022-09-11T10:12:45.666Z,18.02
2022-09-11T10:15:43.082Z,17.45
2022-09-11T10:18:42.998Z,17.37
2022-09-11T10:21:40.007Z,16.57
2022-09-11T10:24:36.805Z,16.26
2022-09-11T10:27:59.533Z,15.89
2022-09-11T10:31:00.845Z,15.34
2022-09-11T10:34:00.408Z,15.57
2022-09-11T10:37:07.531Z,15.23
2022-09-11T10:40:19.191Z,15.39
2022-09-11T10:43:34.357Z,16.08
2022-09-11T10:46:41.905Z,15.96
2022-09-11T10:49:39.071Z,15.80
2022-09-11T10:52:58.772Z,15.21
2022-09-11T10:56:00.627Z,15.41
2022-09-11T10:59:10.779Z,15.60
2022-09-11T11:02:47.488Z,15.57
2022-09-11T11:06:08.631Z,15.76
2022-09-11T11:09:52.819Z,15.64
2022-09-11T11:13:21.492Z,15.50
2022-09-11T11:17:07.610Z,15.60
2022-09-11T11:20:31.323Z,15.68
2022-09-11T11:24:01.478Z,15.78
2022-09-11T11:27:19.762Z,15.79
2022-09-11T11:30:20.862Z,16.15
2022-09-11T11:33:57.964Z,16.41
2022-09-11T11:37:11.668Z,16.78
2022-09-11T11:40:46.420Z,16.37
2022-09-11T11:43:45.141Z,16.34
2022-09-11T11:46:49.389Z,16.22
2022-09-11T11:50:22.244Z,16.27
2022-09-11T11:53:27.239Z,16.46
2022-09-11T11:56:58.963Z,16.27
2022-09-11T12:00:08.031Z,16.28
2022-09-11T12:03:23.752Z,16.58
2022-09-11T12:06:20.651Z,16.68
2022-09-11T12:09:18.299Z,16.32
2022-09-11T12:12:17.560Z,17.52
2022-09-11T12:15:29.190Z,18.91
2022-09-11T12:18:26.750Z,17.88
2022-09-11T12:21:23.423Z,18.04
2022-09-11T12:24:42.812Z,18.26
2022-09-11T12:27:39.473Z,17.53
2022-09-11T12:30:56.448Z,17.25
2022-09-11T12:33:54.917Z,16.96
2022-09-11T12:37:01.714Z,16.73
2022-09-11T12:40:17.105Z,16.54
2022-09-11T12:43:26.958Z,16.35
2022-09-11T12:46:24.394Z,16.92
2022-09-11T12:49:29.155Z,16.80
2022-09-11T12:52:57.745Z,16.75
2022-09-11T12:56:01.035Z,17.70
2022-09-11T12:59:02.664Z,18.10
2022-09-11T13:02:03.163Z,18.81
2022-09-11T13:05:02.245Z,19.31
2022-09-11T13:08:00.742Z,18.16
2022-09-11T13:11:46.457Z,18.93
2022-09-11T13:14:48.660Z,20.00
2022-09-11T13:17:46.742Z,19.98
2022-09-11T13:20:43.543Z,19.80
2022-09-11T13:23:42.954Z,19.67
2022-09-11T13:26:45.013Z,20.02
2022-09-11T13:29:43.462Z,20.60
2022-09-11T13:32:43.724Z,20.18
2022-09-11T13:35:45.474Z,20.11
2022-09-11T13:38:44.202Z,20.42
2022-09-11T13:41:46.810Z,19.99
2022-09-11T13:44:48.949Z,20.16
2022-09-11T13:47:45.901Z,20.17
2022-09-11T13:50:45.297Z,20.47
2022-09-11T13:53:45.345Z,19.87
2022-09-11T13:56:54.594Z,19.92
2022-09-11T13:59:57.067Z,19.77
2022-09-11T14:02:54.456Z,20.02
2022-09-11T14:05:56.133Z,19.72
2022-09-11T14:08:57.478Z,20.01
2022-09-11T14:11:54.310Z,20.17
2022-09-11T14:14:55.682Z,19.53
2022-09-11T14:17:53.088Z,19.68
2022-09-11T14:20:50.167Z,19.80
2022-09-11T14:23:55.815Z,19.61
2022-09-11T14:26:53.102Z,20.11
2022-09-11T14:29:55.498Z,20.28
2022-09-11T14:33:24.767Z,20.55
2022-09-11T14:36:21.567Z,20.69
2022-09-11T14:39:39.454Z,20.17
2022-09-11T14:42:36.925Z,20.49
2022-09-11T14:45:34.520Z,20.63
2022-09-11T14:48:34.665Z,20.47
2022-09-11T14:51:31.462Z,20.28
2022-09-11T14:54:32.672Z,20.18
2022-09-11T14:57:34.076Z,20.35
2022-09-11T15:00:31.864Z,20.34
2022-09-11T15:03:30.241Z,19.94
2022-09-11T15:06:27.096Z,20.09
2022-09-11T15:09:24.539Z,19.90
2022-09-11T15:12:22.022Z,19.91
2022-09-11T15:15:20.346Z,20.06
2022-09-11T15:18:18.354Z,19.97
2022-09-11T15:21:15.144Z,19.70
2022-09-11T15:24:11.977Z,19.89
2022-09-11T15:27:10.321Z,19.92
2022-09-11T15:30:07.683Z,19.63
2022-09-11T15:33:05.251Z,19.38
2022-09-11T15:36:05.737Z,18.81
2022-09-11T15:39:03.683Z,18.75
2022-09-11T15:42:01.734Z,18.60
2022-09-11T15:44:58.683Z,18.54
2022-09-11T15:48:00.244Z,18.48
2022-09-11T15:51:01.662Z,18.68
2022-09-11T15:54:02.611Z,18.08
2022-09-11T15:56:59.418Z,17.76
2022-09-11T15:59:56.388Z,17.68
2022-09-11T16:02:53.621Z,17.75
2022-09-11T16:05:50.630Z,17.52
2022-09-11T16:08:47.965Z,17.54
2022-09-11T16:11:47.019Z,17.38
2022-09-11T16:14:44.095Z,17.61
2022-09-11T16:17:40.927Z,17.72
2022-09-11T16:20:43.537Z,17.40
2022-09-11T16:23:41.219Z,17.17
2022-09-11T16:26:38.641Z,16.96
2022-09-11T16:30:09.031Z,16.72
2022-09-11T16:32:52.903Z,16.42
2022-09-11T16:36:05.417Z,16.50
2022-09-11T16:39:02.280Z,16.67
2022-09-11T16:41:59.124Z,16.82
2022-09-11T16:44:56.112Z,16.85
2022-09-11T16:47:53.028Z,16.54
2022-09-11T16:50:55.181Z,16.68
2022-09-11T16:53:52.333Z,16.67
2022-09-11T16:56:49.140Z,16.44
2022-09-11T16:59:46.078Z,16.36
2022-09-11T17:02:43.182Z,16.13
2022-09-11T17:05:53.768Z,16.22
2022-09-11T17:08:51.918Z,16.18
2022-09-11T17:11:48.890Z,16.00
2022-09-11T17:14:45.703Z,16.06
2022-09-11T17:17:43.448Z,16.04
2022-09-11T17:20:40.473Z,16.05
2022-09-11T17:23:39.246Z,15.84
2022-09-11T17:26:36.500Z,15.79
2022-09-11T17:29:33.382Z,15.85
2022-09-11T17:32:31.250Z,15.85
2022-09-11T17:35:28.432Z,15.88
2022-09-11T17:38:25.967Z,15.89
2022-09-11T17:41:22.904Z,15.84
2022-09-11T17:44:20.820Z,15.95
2022-09-11T17:47:17.607Z,15.81
2022-09-11T17:50:14.976Z,15.61
2022-09-11T17:53:12.180Z,15.58
2022-09-11T17:56:18.186Z,15.27
2022-09-11T17:59:14.976Z,15.26
2022-09-11T18:02:17.473Z,14.77
2022-09-11T18:05:14.355Z,14.51
2022-09-11T18:08:11.156Z,14.44
2022-09-11T18:11:08.482Z,14.72
2022-09-11T18:14:05.716Z,14.71
2022-09-11T18:17:02.553Z,14.60
2022-09-11T18:19:59.362Z,14.27
2022-09-11T18:22:56.142Z,14.12
2022-09-11T18:25:52.975Z,14.28
2022-09-11T18:28:50.742Z,14.46
2022-09-11T18:31:53.406Z,14.15
2022-09-11T18:34:50.440Z,14.06
2022-09-11T18:37:47.341Z,14.22
2022-09-11T18:40:44.169Z,14.30
2022-09-11T18:43:41.027Z,14.08
2022-09-11T18:46:37.971Z,13.99
2022-09-11T18:49:34.929Z,13.82
2022-09-11T18:52:31.977Z,13.81
2022-09-11T18:55:31.928Z,13.57
2022-09-11T18:58:33.899Z,13.56
2022-09-11T19:01:32.490Z,13.30
2022-09-11T19:04:29.546Z,13.40
2022-09-11T19:07:26.350Z,13.52
2022-09-11T19:10:23.228Z,13.48
2022-09-11T19:13:22.590Z,13.60
2022-09-11T19:16:21.579Z,13.29
2022-09-11T19:19:18.439Z,13.06
2022-09-11T19:22:15.235Z,13.06
2022-09-11T19:25:12.040Z,13.00
2022-09-11T19:28:08.826Z,13.06
2022-09-11T19:31:06.198Z,12.87
2022-09-11T19:34:03.094Z,12.87
2022-09-11T19:37:00.310Z,12.80
2022-09-11T19:40:00.297Z,12.79
2022-09-11T19:42:57.398Z,12.67
2022-09-11T19:46:09.344Z,12.54
2022-09-11T19:49:07.661Z,12.55
2022-09-11T19:52:04.482Z,12.88
2022-09-11T19:55:01.275Z,12.70
2022-09-11T19:58:00.409Z,12.58
2022-09-11T20:00:57.729Z,12.33
2022-09-11T20:03:55.162Z,12.39
2022-09-11T20:09:47.705Z,12.49
2022-09-11T20:12:44.482Z,12.11
2022-09-11T20:15:42.200Z,12.12
2022-09-11T20:18:39.175Z,12.29
2022-09-11T20:21:36.209Z,12.11
2022-09-11T20:24:33.364Z,12.00
2022-09-11T20:27:30.162Z,12.02
2022-09-11T20:30:27.085Z,12.01
2022-09-11T20:33:24.078Z,12.03
2022-09-11T20:36:21.918Z,11.85
2022-09-11T20:39:20.080Z,11.99
2022-09-11T20:42:17.074Z,11.97
2022-09-11T20:45:14.116Z,11.94
2022-09-11T20:48:10.909Z,11.84
2022-09-11T20:51:12.507Z,11.82
2022-09-11T20:54:09.883Z,11.55
2022-09-11T20:57:07.484Z,11.68
2022-09-11T21:00:05.413Z,11.40
2022-09-11T21:03:02.211Z,11.52
2022-09-11T21:06:07.547Z,11.80
2022-09-11T21:09:09.788Z,11.54
2022-09-11T21:12:07.413Z,11.50
2022-09-11T21:15:04.625Z,11.45
2022-09-11T21:18:01.411Z,11.58
2022-09-11T21:20:58.227Z,11.59
2022-09-11T21:24:01.561Z,11.43
2022-09-11T21:26:58.341Z,11.27
2022-09-11T21:29:55.631Z,11.29
2022-09-11T21:32:52.671Z,11.34
2022-09-11T21:35:54.300Z,11.16
2022-09-11T21:38:51.311Z,11.15
2022-09-11T21:41:48.099Z,11.18
2022-09-11T21:44:44.894Z,11.20
2022-09-11T21:47:41.731Z,11.14
2022-09-11T21:50:39.662Z,11.06
2022-09-11T21:53:41.550Z,11.10
2022-09-11T21:56:38.407Z,11.05
2022-09-11T21:59:35.218Z,10.92
2022-09-11T22:02:31.995Z,10.95
2022-09-11T22:05:29.224Z,11.00
2022-09-11T22:08:26.058Z,10.92
2022-09-11T22:11:23.405Z,10.92
2022-09-11T22:14:21.539Z,10.92
2022-09-11T22:17:18.739Z,10.97
2022-09-11T22:20:15.554Z,10.71
2022-09-11T22:23:17.719Z,10.77
2022-09-11T22:26:19.611Z,10.76
2022-09-11T22:29:16.401Z,10.68
2022-09-11T22:32:13.175Z,10.51
2022-09-11T22:35:10.003Z,10.48
2022-09-11T22:38:06.804Z,10.51
2022-09-11T22:41:04.340Z,10.57
2022-09-11T22:44:01.189Z,10.36
2022-09-11T22:46:57.993Z,10.64
2022-09-11T22:49:54.804Z,10.48
2022-09-11T22:52:51.606Z,10.40
2022-09-11T22:55:49.535Z,10.31
2022-09-11T22:58:46.424Z,10.34
2022-09-11T23:01:43.355Z,10.19
2022-09-11T23:04:40.235Z,10.31
2022-09-11T23:07:38.359Z,10.31
2022-09-11T23:10:44.039Z,10.23
2022-09-11T23:13:42.893Z,10.52
2022-09-11T23:16:39.742Z,10.08
2022-09-11T23:19:36.659Z,10.17
2022-09-11T23:22:33.738Z,10.06
2022-09-11T23:25:31.583Z,9.95
2022-09-11T23:28:28.395Z,9.95
2022-09-11T23:31:32.138Z,10.12
2022-09-11T23:34:29.042Z,10.22
2022-09-11T23:37:25.900Z,10.14
2022-09-11T23:40:22.952Z,10.00
2022-09-11T23:43:19.751Z,9.77
2022-09-11T23:46:17.295Z,9.98
2022-09-11T23:49:14.817Z,10.18
2022-09-11T23:52:11.627Z,10.01
2022-09-11T23:55:09.009Z,9.97
2022-09-11T23:58:06.042Z,9.78
